sensor_id;sensor_type;location;lat;lon;timestamp;pressure;altitude;pressure_sealevel;temperature;humidity
68077;BME280;54866;53.458;14.540;2023-03-24T16:13:29;99109.66;;;15.18;52.48
68077;BME280;54866;53.458;14.540;2023-03-24T16:16:01;99117.55;;;14.83;53.28
68077;BME280;54866;53.458;14.540;2023-03-24T16:18:39;99123.87;;;14.63;54.42
68077;BME280;54866;53.458;14.540;2023-03-24T16:21:14;99128.73;;;14.46;55.02
68077;BME280;54866;53.458;14.540;2023-03-24T16:23:44;99127.90;;;14.32;55.54
68077;BME280;54866;53.458;14.540;2023-03-24T16:26:17;99132.27;;;14.24;56.43
68077;BME280;54866;53.458;14.540;2023-03-24T16:28:47;99138.36;;;14.16;57.27
68077;BME280;54866;53.458;14.540;2023-03-24T16:31:21;99137.60;;;14.08;57.78
68077;BME280;54866;53.458;14.540;2023-03-24T16:33:53;99141.56;;;14.14;58.22
68077;BME280;54866;53.458;14.540;2023-03-24T16:36:24;99142.88;;;14.39;57.82
68077;BME280;54866;53.458;14.540;2023-03-24T16:38:56;99142.83;;;14.56;57.26
68077;BME280;54866;53.458;14.540;2023-03-24T16:41:26;99150.79;;;14.66;56.49
68077;BME280;54866;53.458;14.540;2023-03-24T16:43:56;99156.78;;;14.71;56.51
68077;BME280;54866;53.458;14.540;2023-03-24T16:46:33;99161.24;;;14.80;56.24
68077;BME280;54866;53.458;14.540;2023-03-24T16:49:05;99157.35;;;14.83;55.94
68077;BME280;54866;53.458;14.540;2023-03-24T16:51:36;99168.13;;;14.84;56.22
68077;BME280;54866;53.458;14.540;2023-03-24T16:54:06;99169.98;;;14.85;56.20
68077;BME280;54866;53.458;14.540;2023-03-24T16:56:37;99167.77;;;14.84;56.75
68077;BME280;54866;53.458;14.540;2023-03-24T16:59:07;99165.27;;;14.82;56.70
68077;BME280;54866;53.458;14.540;2023-03-24T17:01:41;99160.68;;;14.69;56.78
68077;BME280;54866;53.458;14.540;2023-03-24T17:04:17;99169.59;;;14.54;57.08
68077;BME280;54866;53.458;14.540;2023-03-24T17:06:50;99174.13;;;14.38;57.81
68077;BME280;54866;53.458;14.540;2023-03-24T17:09:21;99171.73;;;14.19;58.33
68077;BME280;54866;53.458;14.540;2023-03-24T17:11:53;99180.46;;;13.98;58.83
68077;BME280;54866;53.458;14.540;2023-03-24T17:14:23;99183.54;;;13.72;59.78
68077;BME280;54866;53.458;14.540;2023-03-24T17:16:53;99190.66;;;13.48;60.54
68077;BME280;54866;53.458;14.540;2023-03-24T17:19:23;99193.45;;;13.28;61.30
68077;BME280;54866;53.458;14.540;2023-03-24T17:21:58;99201.01;;;13.10;62.15
68077;BME280;54866;53.458;14.540;2023-03-24T17:24:30;99206.64;;;12.93;62.76
68077;BME280;54866;53.458;14.540;2023-03-24T17:27:03;99210.77;;;12.75;63.43
68077;BME280;54866;53.458;14.540;2023-03-24T17:29:38;99213.09;;;12.58;63.75
68077;BME280;54866;53.458;14.540;2023-03-24T17:32:09;99210.40;;;12.45;64.23
68077;BME280;54866;53.458;14.540;2023-03-24T17:34:42;99218.55;;;12.33;64.59
68077;BME280;54866;53.458;14.540;2023-03-24T17:37:13;99221.67;;;12.21;64.68
68077;BME280;54866;53.458;14.540;2023-03-24T17:39:45;99220.45;;;12.07;65.02
68077;BME280;54866;53.458;14.540;2023-03-24T17:42:17;99228.49;;;12.00;65.21
68077;BME280;54866;53.458;14.540;2023-03-24T17:44:47;99230.44;;;11.92;65.76
68077;BME280;54866;53.458;14.540;2023-03-24T17:47:17;99236.48;;;11.83;65.99
68077;BME280;54866;53.458;14.540;2023-03-24T17:49:47;99237.88;;;11.74;66.29
68077;BME280;54866;53.458;14.540;2023-03-24T17:52:18;99245.76;;;11.65;67.21
68077;BME280;54866;53.458;14.540;2023-03-24T17:54:49;99239.83;;;11.55;68.30
68077;BME280;54866;53.458;14.540;2023-03-24T17:57:19;99241.55;;;11.45;68.89
68077;BME280;54866;53.458;14.540;2023-03-24T17:59:49;99242.22;;;11.35;69.40
68077;BME280;54866;53.458;14.540;2023-03-24T18:02:20;99247.58;;;11.28;69.22
68077;BME280;54866;53.458;14.540;2023-03-24T18:04:50;99247.61;;;11.23;69.24
68077;BME280;54866;53.458;14.540;2023-03-24T18:07:21;99251.50;;;11.15;69.29
68077;BME280;54866;53.458;14.540;2023-03-24T18:09:51;99252.33;;;11.09;68.76
68077;BME280;54866;53.458;14.540;2023-03-24T18:12:22;99256.06;;;11.04;68.88
68077;BME280;54866;53.458;14.540;2023-03-24T18:14:53;99254.85;;;10.99;68.26
68077;BME280;54866;53.458;14.540;2023-03-24T18:17:23;99258.65;;;10.96;67.83
68077;BME280;54866;53.458;14.540;2023-03-24T18:19:53;99267.05;;;10.93;67.87
68077;BME280;54866;53.458;14.540;2023-03-24T18:22:23;99268.07;;;10.88;68.11
68077;BME280;54866;53.458;14.540;2023-03-24T18:24:54;99268.27;;;10.83;67.85
68077;BME280;54866;53.458;14.540;2023-03-24T18:27:25;99270.34;;;10.78;67.78
68077;BME280;54866;53.458;14.540;2023-03-24T18:29:55;99267.62;;;10.74;67.70
68077;BME280;54866;53.458;14.540;2023-03-24T18:32:27;99272.59;;;10.70;67.66
68077;BME280;54866;53.458;14.540;2023-03-24T18:35:00;99275.92;;;10.65;68.04
68077;BME280;54866;53.458;14.540;2023-03-24T18:37:33;99278.92;;;10.59;68.12
68077;BME280;54866;53.458;14.540;2023-03-24T18:40:04;99281.98;;;10.53;68.16
68077;BME280;54866;53.458;14.540;2023-03-24T18:42:35;99278.23;;;10.46;68.19
68077;BME280;54866;53.458;14.540;2023-03-24T18:45:07;99287.86;;;10.43;68.48
68077;BME280;54866;53.458;14.540;2023-03-24T18:47:37;99287.63;;;10.36;68.78
68077;BME280;54866;53.458;14.540;2023-03-24T18:50:09;99276.45;;;10.21;68.89
68077;BME280;54866;53.458;14.540;2023-03-24T18:52:40;99290.27;;;10.24;69.02
68077;BME280;54866;53.458;14.540;2023-03-24T18:55:12;99292.14;;;10.17;69.23
68077;BME280;54866;53.458;14.540;2023-03-24T18:57:45;99291.67;;;10.11;69.59
68077;BME280;54866;53.458;14.540;2023-03-24T19:00:16;99289.82;;;10.05;69.68
68077;BME280;54866;53.458;14.540;2023-03-24T19:02:47;99285.41;;;9.92;69.93
68077;BME280;54866;53.458;14.540;2023-03-24T19:05:17;99297.30;;;9.95;70.06
68077;BME280;54866;53.458;14.540;2023-03-24T19:07:47;99300.83;;;9.91;70.19
68077;BME280;54866;53.458;14.540;2023-03-24T19:10:19;99301.50;;;9.88;70.22
68077;BME280;54866;53.458;14.540;2023-03-24T19:12:48;99305.92;;;9.86;70.50
68077;BME280;54866;53.458;14.540;2023-03-24T19:15:19;99308.52;;;9.81;70.67
68077;BME280;54866;53.458;14.540;2023-03-24T19:17:48;99304.33;;;9.77;70.85
68077;BME280;54866;53.458;14.540;2023-03-24T19:20:18;99304.99;;;9.72;71.05
68077;BME280;54866;53.458;14.540;2023-03-24T19:22:48;99305.77;;;9.67;71.29
68077;BME280;54866;53.458;14.540;2023-03-24T19:25:18;99309.14;;;9.62;71.50
68077;BME280;54866;53.458;14.540;2023-03-24T19:27:48;99307.19;;;9.58;71.95
68077;BME280;54866;53.458;14.540;2023-03-24T19:30:18;99305.59;;;9.55;72.33
68077;BME280;54866;53.458;14.540;2023-03-24T19:32:47;99302.21;;;9.52;72.69
68077;BME280;54866;53.458;14.540;2023-03-24T19:35:17;99304.29;;;9.48;72.78
68077;BME280;54866;53.458;14.540;2023-03-24T19:37:47;99300.22;;;9.41;73.27
68077;BME280;54866;53.458;14.540;2023-03-24T19:40:17;99292.88;;;9.39;73.47
68077;BME280;54866;53.458;14.540;2023-03-24T19:42:47;99294.44;;;9.37;73.86
68077;BME280;54866;53.458;14.540;2023-03-24T19:45:18;99290.35;;;9.30;74.26
68077;BME280;54866;53.458;14.540;2023-03-24T19:47:49;99296.55;;;9.30;74.36
68077;BME280;54866;53.458;14.540;2023-03-24T19:50:22;99299.20;;;9.26;75.03
68077;BME280;54866;53.458;14.540;2023-03-24T19:52:53;99299.20;;;9.22;75.28
68077;BME280;54866;53.458;14.540;2023-03-24T19:55:23;99291.89;;;9.14;75.66
68077;BME280;54866;53.458;14.540;2023-03-24T19:57:55;99294.95;;;9.13;76.01
68077;BME280;54866;53.458;14.540;2023-03-24T20:00:27;99293.67;;;9.11;76.36
68077;BME280;54866;53.458;14.540;2023-03-24T20:02:59;99297.71;;;9.07;76.49
68077;BME280;54866;53.458;14.540;2023-03-24T20:05:29;99293.92;;;9.04;76.99
68077;BME280;54866;53.458;14.540;2023-03-24T20:08:00;99294.23;;;9.02;77.04
68077;BME280;54866;53.458;14.540;2023-03-24T20:10:31;99293.36;;;9.01;77.21
68077;BME280;54866;53.458;14.540;2023-03-24T20:13:03;99298.16;;;8.98;77.54
68077;BME280;54866;53.458;14.540;2023-03-24T20:15:34;99281.84;;;8.83;77.69
68077;BME280;54866;53.458;14.540;2023-03-24T20:18:05;99293.67;;;8.92;77.78
68077;BME280;54866;53.458;14.540;2023-03-24T20:20:35;99289.21;;;8.85;78.11
68077;BME280;54866;53.458;14.540;2023-03-24T20:23:07;99292.29;;;8.88;78.02
68077;BME280;54866;53.458;14.540;2023-03-24T20:25:41;99293.00;;;8.88;78.18
68077;BME280;54866;53.458;14.540;2023-03-24T20:28:11;99293.00;;;8.88;78.06
68077;BME280;54866;53.458;14.540;2023-03-24T20:30:42;99291.77;;;8.90;77.88
68077;BME280;54866;53.458;14.540;2023-03-24T20:33:15;99293.08;;;8.96;77.65
68077;BME280;54866;53.458;14.540;2023-03-24T20:35:45;99287.60;;;9.02;77.13
68077;BME280;54866;53.458;14.540;2023-03-24T20:38:15;99280.94;;;9.06;77.07
68077;BME280;54866;53.458;14.540;2023-03-24T20:40:56;99271.11;;;9.05;77.00
68077;BME280;54866;53.458;14.540;2023-03-24T20:43:29;99268.40;;;9.05;77.00
68077;BME280;54866;53.458;14.540;2023-03-24T20:46:04;99251.38;;;8.93;77.11
68077;BME280;54866;53.458;14.540;2023-03-24T20:48:35;99270.41;;;9.02;76.98
68077;BME280;54866;53.458;14.540;2023-03-24T20:51:06;99264.58;;;8.96;76.98
68077;BME280;54866;53.458;14.540;2023-03-24T20:53:38;99270.94;;;9.00;77.26
68077;BME280;54866;53.458;14.540;2023-03-24T20:56:09;99265.98;;;8.98;77.12
68077;BME280;54866;53.458;14.540;2023-03-24T20:58:43;99256.05;;;8.88;77.33
68077;BME280;54866;53.458;14.540;2023-03-24T21:01:16;99275.85;;;8.94;77.45
68077;BME280;54866;53.458;14.540;2023-03-24T21:03:50;99271.94;;;8.84;77.65
68077;BME280;54866;53.458;14.540;2023-03-24T21:06:21;99281.58;;;8.88;77.94
68077;BME280;54866;53.458;14.540;2023-03-24T21:08:53;99283.45;;;8.85;78.27
68077;BME280;54866;53.458;14.540;2023-03-24T21:11:25;99284.13;;;8.81;78.58
68077;BME280;54866;53.458;14.540;2023-03-24T21:13:58;99273.70;;;8.73;78.78
68077;BME280;54866;53.458;14.540;2023-03-24T21:16:28;99282.84;;;8.76;78.87
68077;BME280;54866;53.458;14.540;2023-03-24T21:19:04;99282.64;;;8.73;79.06
68077;BME280;54866;53.458;14.540;2023-03-24T21:21:44;99271.88;;;8.62;78.94
68077;BME280;54866;53.458;14.540;2023-03-24T21:24:19;99281.68;;;8.68;79.27
68077;BME280;54866;53.458;14.540;2023-03-24T21:26:53;99271.66;;;8.59;79.41
68077;BME280;54866;53.458;14.540;2023-03-24T21:29:28;99283.66;;;8.60;79.67
68077;BME280;54866;53.458;14.540;2023-03-24T21:32:04;99281.14;;;8.61;79.68
68077;BME280;54866;53.458;14.540;2023-03-24T21:34:35;99287.34;;;8.60;79.84
68077;BME280;54866;53.458;14.540;2023-03-24T21:37:05;99300.04;;;8.59;79.95
68077;BME280;54866;53.458;14.540;2023-03-24T21:39:37;99301.33;;;8.59;79.85
68077;BME280;54866;53.458;14.540;2023-03-24T21:42:10;99312.41;;;8.58;80.03
68077;BME280;54866;53.458;14.540;2023-03-24T21:44:43;99314.55;;;8.56;80.30
68077;BME280;54866;53.458;14.540;2023-03-24T21:47:14;99314.36;;;8.55;80.34
68077;BME280;54866;53.458;14.540;2023-03-24T21:49:48;99303.41;;;8.53;80.76
68077;BME280;54866;53.458;14.540;2023-03-24T21:52:26;99302.20;;;8.53;80.73
68077;BME280;54866;53.458;14.540;2023-03-24T21:54:57;99300.81;;;8.51;80.79
68077;BME280;54866;53.458;14.540;2023-03-24T21:57:28;99305.64;;;8.50;81.13
68077;BME280;54866;53.458;14.540;2023-03-24T21:59:58;99304.95;;;8.48;81.21
68077;BME280;54866;53.458;14.540;2023-03-24T22:02:37;99302.58;;;8.47;81.35
68077;BME280;54866;53.458;14.540;2023-03-24T22:05:07;99305.34;;;8.45;81.55
68077;BME280;54866;53.458;14.540;2023-03-24T22:07:39;99306.65;;;8.44;81.77
68077;BME280;54866;53.458;14.540;2023-03-24T22:10:11;99310.20;;;8.42;81.39
68077;BME280;54866;53.458;14.540;2023-03-24T22:12:42;99320.96;;;8.42;81.78
68077;BME280;54866;53.458;14.540;2023-03-24T22:15:14;99321.82;;;8.40;81.80
68077;BME280;54866;53.458;14.540;2023-03-24T22:17:44;99326.75;;;8.36;82.02
68077;BME280;54866;53.458;14.540;2023-03-24T22:20:18;99333.71;;;8.35;82.19
68077;BME280;54866;53.458;14.540;2023-03-24T22:22:48;99339.61;;;8.33;82.07
68077;BME280;54866;53.458;14.540;2023-03-24T22:25:19;99342.80;;;8.33;82.29
68077;BME280;54866;53.458;14.540;2023-03-24T22:27:49;99340.91;;;8.32;82.04
68077;BME280;54866;53.458;14.540;2023-03-24T22:30:21;99345.85;;;8.32;81.91
68077;BME280;54866;53.458;14.540;2023-03-24T22:32:51;99342.11;;;8.31;82.08
68077;BME280;54866;53.458;14.540;2023-03-24T22:35:21;99335.63;;;8.26;81.90
68077;BME280;54866;53.458;14.540;2023-03-24T22:37:53;99346.33;;;8.29;82.03
68077;BME280;54866;53.458;14.540;2023-03-24T22:40:29;99344.54;;;8.27;81.94
68077;BME280;54866;53.458;14.540;2023-03-24T22:43:03;99348.00;;;8.26;81.78
68077;BME280;54866;53.458;14.540;2023-03-24T22:45:33;99347.67;;;8.24;81.97
68077;BME280;54866;53.458;14.540;2023-03-24T22:48:04;99343.38;;;8.21;81.95
68077;BME280;54866;53.458;14.540;2023-03-24T22:50:35;99341.55;;;8.20;82.02
68077;BME280;54866;53.458;14.540;2023-03-24T22:53:11;99337.14;;;8.18;81.91
68077;BME280;54866;53.458;14.540;2023-03-24T22:55:44;99312.39;;;8.02;82.03
68077;BME280;54866;53.458;14.540;2023-03-24T22:58:14;99333.48;;;8.13;82.20
68077;BME280;54866;53.458;14.540;2023-03-24T23:00:48;99337.56;;;8.13;82.00
68077;BME280;54866;53.458;14.540;2023-03-24T23:03:18;99329.37;;;8.10;82.07
68077;BME280;54866;53.458;14.540;2023-03-24T23:05:49;99328.12;;;8.09;82.24
68077;BME280;54866;53.458;14.540;2023-03-24T23:08:21;99333.11;;;8.08;82.09
68077;BME280;54866;53.458;14.540;2023-03-24T23:10:52;99329.79;;;8.04;82.05
68077;BME280;54866;53.458;14.540;2023-03-24T23:13:24;99335.83;;;8.03;82.01
68077;BME280;54866;53.458;14.540;2023-03-24T23:15:56;99332.31;;;8.01;82.24
68077;BME280;54866;53.458;14.540;2023-03-24T23:18:27;99330.98;;;7.97;82.25
68077;BME280;54866;53.458;14.540;2023-03-24T23:21:04;99333.95;;;7.91;82.64
68077;BME280;54866;53.458;14.540;2023-03-24T23:23:36;99332.14;;;7.87;82.62
68077;BME280;54866;53.458;14.540;2023-03-24T23:26:11;99334.86;;;7.84;82.97
68077;BME280;54866;53.458;14.540;2023-03-24T23:28:43;99333.67;;;7.80;83.25
68077;BME280;54866;53.458;14.540;2023-03-24T23:31:14;99328.38;;;7.78;83.25
68077;BME280;54866;53.458;14.540;2023-03-24T23:33:46;99322.20;;;7.77;83.30
68077;BME280;54866;53.458;14.540;2023-03-24T23:36:19;99322.42;;;7.74;83.30
68077;BME280;54866;53.458;14.540;2023-03-24T23:38:53;99322.91;;;7.73;83.76
68077;BME280;54866;53.458;14.540;2023-03-24T23:41:26;99321.87;;;7.71;84.13
68077;BME280;54866;53.458;14.540;2023-03-24T23:43:57;99319.82;;;7.68;83.94
68077;BME280;54866;53.458;14.540;2023-03-24T23:46:27;99313.05;;;7.64;84.37
68077;BME280;54866;53.458;14.540;2023-03-24T23:48:57;99308.70;;;7.61;84.34
68077;BME280;54866;53.458;14.540;2023-03-24T23:51:28;99307.49;;;7.57;84.85
68077;BME280;54866;53.458;14.540;2023-03-24T23:54:00;99304.06;;;7.54;84.70
68077;BME280;54866;53.458;14.540;2023-03-24T23:56:31;99294.30;;;7.47;84.48
68077;BME280;54866;53.458;14.540;2023-03-24T23:59:04;99286.55;;;7.38;84.79
